Time;durP1;ratioP1;P1;durP2;ratioP2;P2;SDS_P1;SDS_P2;PMS_P1;PMS_P2;Temp;Humidity;BMP_temperature;BMP_pressure;BME280_temperature;BME280_humidity;BME280_pressure;Samples;Min_cycle;Max_cycle;Signal;HPM_P1;HPM_P2
2022/04/17 00:03:15;;;;;;;41.65;25.50;;;;;;;9.79;62.03;103085.84;10593133;27;20044;-63
2022/04/17 00:08:36;;;;;;;41.42;23.17;;;;;;;9.68;62.54;103080.91;10594864;27;20058;-63
2022/04/17 00:13:59;;;;;;;40.22;21.95;;;;;;;9.62;62.43;103075.00;10577386;27;20043;-64
2022/04/17 00:19:21;;;;;;;36.70;21.50;;;;;;;9.60;62.55;103079.41;10552390;28;20067;-63
2022/04/17 00:24:43;;;;;;;34.97;21.00;;;;;;;9.55;61.89;103076.91;10559281;28;20126;-63
2022/04/17 00:30:07;;;;;;;37.33;21.00;;;;;;;9.46;62.12;103085.84;10569320;27;20498;-63
2022/04/17 00:35:28;;;;;;;38.95;21.65;;;;;;;9.39;62.26;103074.72;10576027;27;20047;-63
2022/04/17 00:40:54;;;;;;;33.05;20.23;;;;;;;9.30;62.71;103072.34;10591257;27;20043;-63
2022/04/17 00:46:17;;;;;;;37.92;21.17;;;;;;;9.23;63.07;103068.16;10540288;28;20359;-63
2022/04/17 00:51:42;;;;;;;35.47;21.00;;;;;;;9.18;63.23;103063.94;10518402;28;20040;-63
2022/04/17 00:57:06;;;;;;;33.60;19.80;;;;;;;9.16;62.96;103056.19;10525271;28;20052;-63
2022/04/17 01:02:28;;;;;;;33.80;19.08;;;;;;;9.09;63.38;103054.63;10525637;28;20040;-63
2022/04/17 01:07:51;;;;;;;32.47;18.20;;;;;;;9.05;63.24;103055.56;10559349;28;20062;-64
2022/04/17 01:13:13;;;;;;;32.72;17.77;;;;;;;8.97;63.50;103054.03;10543426;28;20052;-63
2022/04/17 01:18:55;;;;;;;32.92;18.17;;;;;;;8.89;62.91;103046.38;10517716;28;20137;-63
2022/04/17 01:29:57;;;;;;;34.65;17.58;;;;;;;8.79;63.56;103041.47;10507986;28;20044;-63
2022/04/17 01:35:19;;;;;;;32.65;17.10;;;;;;;8.75;64.05;103038.03;10505524;28;20047;-63
2022/04/17 01:40:40;;;;;;;34.85;17.40;;;;;;;8.69;64.14;103033.00;10514613;28;20040;-63
2022/04/17 01:46:02;;;;;;;32.15;16.90;;;;;;;8.66;63.72;103035.66;10523133;28;20521;-62
2022/04/17 01:51:24;;;;;;;27.38;16.00;;;;;;;8.65;63.74;103031.34;10495514;28;20063;-63
2022/04/17 01:56:49;;;;;;;29.75;17.08;;;;;;;8.56;64.09;103035.03;10532205;28;20805;-65
2022/04/17 02:02:11;;;;;;;28.00;16.48;;;;;;;8.49;64.35;103028.22;10519059;28;20054;-63
2022/04/17 02:07:33;;;;;;;30.15;16.13;;;;;;;8.44;64.54;103025.75;10519808;28;20040;-64
2022/04/17 02:12:54;;;;;;;32.13;15.65;;;;;;;8.37;64.47;103012.91;10507909;28;20076;-63
2022/04/17 02:18:16;;;;;;;33.97;16.02;;;;;;;8.28;65.30;103013.94;10515568;28;20047;-63
2022/04/17 02:23:38;;;;;;;30.17;15.10;;;;;;;8.24;64.79;103017.47;10522892;28;20624;-63
2022/04/17 02:29:01;;;;;;;30.73;15.80;;;;;;;8.20;64.80;103009.78;10545867;28;20047;-63
2022/04/17 02:34:22;;;;;;;29.85;14.85;;;;;;;8.11;65.23;103002.16;10521742;28;20052;-63
2022/04/17 02:39:44;;;;;;;30.10;15.40;;;;;;;8.07;64.94;103003.09;10545262;28;20476;-63
2022/04/17 02:45:06;;;;;;;31.67;16.05;;;;;;;8.00;65.18;103012.75;10539060;28;20060;-63
2022/04/17 02:50:27;;;;;;;29.38;15.23;;;;;;;7.98;65.96;103000.69;10528543;28;20051;-63
2022/04/17 02:55:49;;;;;;;28.83;15.68;;;;;;;7.94;65.62;102996.44;10526606;28;20070;-63
2022/04/17 03:06:51;;;;;;;29.63;15.95;;;;;;;7.82;65.89;103005.28;10530229;28;20515;-63
2022/04/17 03:12:14;;;;;;;33.08;15.27;;;;;;;7.77;65.50;102999.34;10546410;28;20048;-63
2022/04/17 03:17:36;;;;;;;25.88;14.30;;;;;;;7.70;66.10;102986.50;10553786;28;20051;-63
2022/04/17 03:22:58;;;;;;;31.13;15.68;;;;;;;7.67;65.90;102981.38;10553825;28;20047;-64
2022/04/17 03:28:20;;;;;;;30.05;15.50;;;;;;;7.66;65.79;102980.50;10541107;28;20535;-63
2022/04/17 03:33:41;;;;;;;27.27;14.50;;;;;;;7.64;66.13;102978.81;10556615;28;20040;-63
2022/04/17 03:39:03;;;;;;;27.38;14.38;;;;;;;7.59;66.42;102978.03;10553248;28;20047;-63
2022/04/17 03:44:25;;;;;;;23.48;14.02;;;;;;;7.54;66.13;102985.06;10537270;28;20458;-63
2022/04/17 03:49:46;;;;;;;24.05;12.93;;;;;;;7.52;66.51;102992.03;10493559;28;20134;-63
2022/04/17 03:55:09;;;;;;;28.77;14.07;;;;;;;7.48;66.59;102985.16;10553162;28;20407;-63
2022/04/17 04:00:30;;;;;;;21.88;12.85;;;;;;;7.46;66.56;102991.28;10550800;28;20054;-63
2022/04/17 04:05:57;;;;;;;23.25;13.40;;;;;;;7.39;66.54;102992.25;10554658;28;20048;-64
2022/04/17 04:11:19;;;;;;;25.63;13.75;;;;;;;7.27;66.56;102982.97;10550558;28;20052;-63
2022/04/17 04:16:41;;;;;;;24.95;13.18;;;;;;;7.21;67.37;102975.25;10551266;28;20047;-63
2022/04/17 04:22:03;;;;;;;25.17;13.68;;;;;;;7.20;67.87;102967.53;10560453;28;20065;-63
2022/04/17 04:33:05;;;;;;;21.98;12.57;;;;;;;7.15;68.01;102972.75;10557486;28;20515;-64
2022/04/17 04:38:27;;;;;;;24.60;13.20;;;;;;;7.12;68.70;102969.38;10537407;28;20052;-63
2022/04/17 04:43:49;;;;;;;28.30;12.82;;;;;;;7.06;68.43;102970.31;10536392;28;20057;-63
2022/04/17 04:49:29;;;;;;;25.42;13.68;;;;;;;7.03;68.75;102974.72;10485443;28;20056;-64
2022/04/17 04:54:51;;;;;;;25.17;12.13;;;;;;;7.01;68.93;102961.75;10539396;28;20392;-64
2022/04/17 05:00:13;;;;;;;22.70;12.13;;;;;;;7.02;69.29;102971.25;10569912;28;20090;-64
2022/04/17 05:05:35;;;;;;;29.75;13.02;;;;;;;6.99;68.99;102973.88;10516775;28;20141;-64
2022/04/17 05:10:57;;;;;;;23.23;12.82;;;;;;;6.96;69.05;102978.25;10549976;28;20047;-64
2022/04/17 05:16:19;;;;;;;24.10;12.77;;;;;;;6.96;68.84;102980.84;10544611;28;20404;-64
2022/04/17 05:21:41;;;;;;;23.73;12.30;;;;;;;6.96;69.34;102984.31;10557412;28;20071;-64
2022/04/17 05:27:04;;;;;;;25.42;12.77;;;;;;;6.98;69.01;102987.75;10521363;28;20505;-65
2022/04/17 05:32:27;;;;;;;25.45;11.98;;;;;;;6.98;69.30;102987.75;10539847;28;20055;-64
2022/04/17 05:37:49;;;;;;;21.63;11.80;;;;;;;7.02;69.49;102986.81;10554266;28;20669;-65
2022/04/17 05:43:12;;;;;;;21.73;12.38;;;;;;;7.05;69.29;102984.16;10516589;28;20504;-64
2022/04/17 05:48:33;;;;;;;18.55;11.63;;;;;;;7.07;69.69;102979.81;10524225;28;20052;-64
2022/04/17 05:53:55;;;;;;;24.60;12.30;;;;;;;7.11;69.87;102976.31;10557416;28;20044;-65
2022/04/17 05:59:17;;;;;;;23.55;12.20;;;;;;;7.19;69.53;102987.41;10544048;28;20403;-64
2022/04/17 06:04:38;;;;;;;20.92;12.10;;;;;;;7.24;69.64;102982.13;10560449;28;20048;-64
2022/04/17 06:10:04;;;;;;;21.98;11.90;;;;;;;7.36;69.09;102990.56;10514749;28;20056;-64
2022/04/17 06:15:26;;;;;;;22.80;11.73;;;;;;;7.47;69.60;102988.66;10535229;28;20059;-65
2022/04/17 06:20:48;;;;;;;20.75;11.68;;;;;;;7.57;69.27;102990.19;10577702;28;20484;-65
2022/04/17 06:26:09;;;;;;;22.63;11.95;;;;;;;7.69;68.48;102984.78;10544154;28;20055;-64
2022/04/17 06:31:32;;;;;;;21.73;11.60;;;;;;;7.82;68.34;102983.69;10534525;28;20039;-64
2022/04/17 06:36:53;;;;;;;21.67;11.95;;;;;;;7.99;68.85;102981.63;10564558;28;20510;-65
2022/04/17 06:42:15;;;;;;;22.33;11.70;;;;;;;8.17;68.58;102973.47;10563089;28;20067;-64
2022/04/17 06:47:37;;;;;;;23.42;11.32;;;;;;;8.33;67.99;102975.75;10533879;28;20043;-65
2022/04/17 06:53:00;;;;;;;20.23;11.30;;;;;;;8.51;67.83;102964.97;10555579;28;20052;-65
2022/04/17 06:58:21;;;;;;;21.35;10.35;;;;;;;8.63;67.20;102960.31;10539210;28;20051;-64
2022/04/17 07:03:44;;;;;;;19.40;11.10;;;;;;;8.74;67.68;102958.31;10563208;28;20055;-65
2022/04/17 07:09:06;;;;;;;20.48;10.20;;;;;;;8.82;66.53;102947.75;10530484;28;20404;-65
2022/04/17 07:14:28;;;;;;;17.15;10.38;;;;;;;8.96;66.69;102946.53;10531351;28;20043;-65
2022/04/17 07:19:49;;;;;;;18.90;10.32;;;;;;;9.17;66.70;102937.34;10540993;28;20044;-64
2022/04/17 07:25:12;;;;;;;18.30;10.15;;;;;;;9.30;66.10;102937.00;10529902;28;20063;-65
2022/04/17 07:30:35;;;;;;;18.50;10.18;;;;;;;9.53;66.99;102936.41;10553462;28;20407;-65
2022/04/17 07:35:57;;;;;;;15.70;9.20;;;;;;;9.69;66.75;102938.56;10555422;28;20056;-64
2022/04/17 07:41:18;;;;;;;16.55;9.18;;;;;;;9.86;65.79;102933.75;10497095;28;20044;-67
2022/04/17 07:46:42;;;;;;;15.32;7.93;;;;;;;10.00;64.31;102927.25;10509340;28;20047;-65
2022/04/17 07:52:04;;;;;;;12.10;7.47;;;;;;;10.17;64.72;102924.19;10512202;28;20444;-65
2022/04/17 07:57:25;;;;;;;12.07;7.18;;;;;;;10.28;64.44;102930.75;10520422;28;20044;-65
2022/04/17 08:03:20;;;;;;;12.20;6.63;;;;;;;10.46;64.20;102929.38;10513107;28;20044;-65
2022/04/17 08:08:43;;;;;;;10.90;6.45;;;;;;;10.55;64.09;102922.97;10502519;28;20040;-65
2022/04/17 08:14:04;;;;;;;16.75;6.80;;;;;;;10.72;63.40;102925.03;10523733;28;20047;-65
2022/04/17 08:19:26;;;;;;;10.80;6.05;;;;;;;10.84;61.90;102919.44;10500407;28;20044;-65
2022/04/17 08:24:48;;;;;;;11.52;6.50;;;;;;;10.94;61.79;102913.84;10509231;28;20048;-65
2022/04/17 08:30:09;;;;;;;9.80;5.68;;;;;;;11.12;59.45;102905.44;10500424;28;20055;-66
2022/04/17 08:35:36;;;;;;;8.45;4.78;;;;;;;11.24;60.02;102907.63;10490767;28;20094;-65
2022/04/17 08:40:59;;;;;;;10.73;4.60;;;;;;;11.55;58.71;102903.06;10496247;28;20043;-66
2022/04/17 08:46:21;;;;;;;8.68;5.43;;;;;;;11.67;56.78;102892.19;10487724;28;20044;-65
2022/04/17 08:51:48;;;;;;;7.68;5.13;;;;;;;11.85;59.03;102887.16;10557069;28;20396;-66
2022/04/17 08:57:10;;;;;;;5.97;4.00;;;;;;;12.05;54.45;102883.78;10531089;28;20135;-66
2022/04/17 09:02:32;;;;;;;10.80;4.65;;;;;;;12.23;57.68;102877.84;10535001;28;20282;-66
2022/04/17 09:07:54;;;;;;;5.47;3.10;;;;;;;12.38;56.15;102877.25;10546958;28;20076;-68
2022/04/17 09:13:25;;;;;;;7.75;3.20;;;;;;;12.54;54.38;102869.56;10491090;28;20068;-67
2022/04/17 09:18:46;;;;;;;5.57;2.97;;;;;;;12.56;56.34;102872.16;10520025;28;20127;-67
2022/04/17 09:24:20;;;;;;;5.82;3.05;;;;;;;12.64;53.51;102852.63;10541953;28;20758;-69
2022/04/17 09:29:42;;;;;;;5.60;2.50;;;;;;;12.77;53.46;102838.09;10499355;28;20045;-66
2022/04/17 09:35:09;;;;;;;4.35;2.60;;;;;;;12.98;50.45;102832.00;10499762;28;20043;-66
2022/04/17 09:40:31;;;;;;;6.13;3.03;;;;;;;13.11;55.66;102830.53;10534007;28;20056;-64
2022/04/17 09:46:03;;;;;;;4.63;2.90;;;;;;;13.19;52.78;102819.75;10523294;28;20548;-70
2022/04/17 09:51:27;;;;;;;5.97;3.30;;;;;;;13.36;54.81;102810.25;10533418;28;20536;-65
2022/04/17 09:56:56;;;;;;;6.13;3.05;;;;;;;13.40;52.70;102801.31;10523860;28;20055;-66
2022/04/17 10:02:19;;;;;;;6.63;3.10;;;;;;;13.49;56.96;102790.44;10555819;28;20059;-65
2022/04/17 10:07:43;;;;;;;6.20;3.10;;;;;;;13.62;53.76;102786.31;10523763;28;20155;-62
2022/04/17 10:13:06;;;;;;;4.03;2.40;;;;;;;13.71;56.73;102778.03;10529968;28;20054;-65
2022/04/17 10:18:33;;;;;;;5.10;2.78;;;;;;;13.68;50.65;102770.34;10523823;28;20136;-66
2022/04/17 10:23:59;;;;;;;3.67;2.70;;;;;;;13.78;54.21;102771.59;10530816;28;20048;-69
2022/04/17 10:29:32;;;;;;;5.43;2.70;;;;;;;13.89;53.54;102758.81;10517672;28;20655;-66
2022/04/17 10:35:08;;;;;;;5.25;2.55;;;;;;;14.01;52.60;102747.75;10510451;28;20044;-69
2022/04/17 10:40:31;;;;;;;4.90;2.30;;;;;;;14.21;53.38;102750.28;10559593;28;20051;-68
2022/04/17 10:46:20;;;;;;;4.18;2.67;;;;;;;14.38;47.31;102742.44;10533280;28;20036;-68
2022/04/17 10:51:49;;;;;;;4.80;2.70;;;;;;;14.51;46.39;102739.97;10560896;28;20481;-66
2022/04/17 10:57:24;;;;;;;5.00;2.17;;;;;;;14.58;50.88;102738.72;10529679;28;20139;-66
2022/04/17 11:02:45;;;;;;;5.75;3.05;;;;;;;14.67;53.21;102730.41;10517569;28;20415;-67
2022/04/17 11:08:20;;;;;;;4.63;3.00;;;;;;;14.72;48.66;102722.28;10519394;28;20044;-66
2022/04/17 11:14:08;;;;;;;5.55;3.10;;;;;;;14.88;48.01;102724.03;10529782;28;20035;-65
2022/04/17 11:19:32;;;;;;;4.38;2.53;;;;;;;15.13;52.16;102718.34;10519382;28;20422;-65
2022/04/17 11:24:54;;;;;;;6.90;3.15;;;;;;;15.27;52.41;102714.09;10520573;28;20058;-65
2022/04/17 11:30:16;;;;;;;5.25;2.90;;;;;;;15.41;50.25;102706.31;10499362;28;20500;-64
2022/04/17 11:35:40;;;;;;;5.55;2.83;;;;;;;15.77;51.00;102697.22;10516156;28;20431;-64
2022/04/17 11:41:07;;;;;;;4.35;2.97;;;;;;;15.86;53.99;102693.22;10507181;28;20039;-64
2022/04/17 11:46:28;;;;;;;4.25;3.03;;;;;;;15.91;50.67;102683.28;10488742;28;20470;-63
2022/04/17 11:51:51;;;;;;;5.53;3.10;;;;;;;16.25;48.64;102693.56;10512133;28;20122;-63
2022/04/17 11:57:14;;;;;;;4.50;2.58;;;;;;;16.49;49.77;102672.78;10492940;28;20071;-63
2022/04/17 12:02:36;;;;;;;3.05;2.60;;;;;;;16.63;51.33;102672.78;10490206;28;20408;-64
2022/04/17 12:08:11;;;;;;;4.50;2.83;;;;;;;16.89;45.41;102661.50;10511969;28;20047;-65
2022/04/17 12:13:33;;;;;;;;;;;;;;;17.21;49.81;102655.09;10483076;28;20048;-65
2022/04/17 12:18:55;;;;;;;;;;;;;;;17.27;51.15;102652.06;10503085;28;20022;-64
2022/04/17 12:24:16;;;;;;;;;;;;;;;17.22;50.46;102640.97;10495239;28;20119;-64
2022/04/17 12:29:38;;;;;;;;;;;;;;;17.37;47.96;102629.47;10501847;28;19928;-64
2022/04/17 12:35:01;;;;;;;;;;;;;;;17.56;49.17;102622.09;10485253;28;19920;-66
2022/04/17 12:40:23;;;;;;;;;;;;;;;17.76;47.27;102624.25;10503651;28;19930;-65
2022/04/17 12:45:58;;;;;;;;;;;;;;;17.78;50.76;102611.78;10503885;28;20587;-65
2022/04/17 12:57:05;;;;;;;;;;;;;;;17.76;49.98;102597.84;10525275;27;20353;-66
2022/04/17 13:02:28;;;;;;;;;;;;;;;18.00;48.84;102591.78;10514112;28;20325;-67
2022/04/17 13:07:49;;;;;;;;;;;;;;;17.92;49.28;102583.56;10511765;28;19928;-68
2022/04/17 13:13:10;;;;;;;;;;;;;;;18.21;46.99;102579.78;10499716;28;19935;-68
2022/04/17 13:18:33;;;;;;;;;;;;;;;18.17;45.76;102574.84;10517707;28;19950;-69
2022/04/17 13:23:58;;;;;;;;;;;;;;;18.14;47.59;102567.13;10504025;28;19924;-66
2022/04/17 13:29:21;;;;;;;;;;;;;;;18.31;47.64;102564.22;10508615;28;19932;-66
2022/04/17 13:34:42;;;;;;;;;;;;;;;18.31;51.23;102553.63;10505199;28;19924;-66
2022/04/17 13:40:04;;;;;;;;;;;;;;;18.34;48.54;102551.63;10502543;28;19925;-65
2022/04/17 13:45:25;;;;;;;;;;;;;;;18.34;54.43;102540.22;10505269;28;19931;-70
2022/04/17 13:50:47;;;;;;;;;;;;;;;18.16;53.54;102525.63;10548101;28;19927;-66
2022/04/17 13:56:08;;;;;;;;;;;;;;;18.22;48.42;102522.53;10477417;28;20276;-65
2022/04/17 14:01:34;;;;;;;;;;;;;;;18.20;48.73;102509.47;10526073;28;20051;-65
2022/04/17 14:06:56;;;;;;;;;;;;;;;18.25;47.67;102506.53;10495832;28;19929;-65
2022/04/17 14:12:17;;;;;;;;;;;;;;;18.28;52.44;102506.31;10483247;28;19935;-65
2022/04/17 14:17:39;;;;;;;;;;;;;;;18.51;50.79;102494.00;10476690;28;19925;-67
2022/04/17 14:23:00;;;;;;;;;;;;;;;18.49;47.73;102489.81;10471727;28;19928;-66
2022/04/17 14:28:22;;;;;;;;;;;;;;;18.48;52.10;102473.09;10481591;28;19936;-67
2022/04/17 14:33:43;;;;;;;;;;;;;;;18.47;51.30;102468.78;10474924;28;19924;-67
2022/04/17 14:39:05;;;;;;;;;;;;;;;18.64;51.27;102457.84;10472050;28;19931;-67
2022/04/17 14:44:26;;;;;;;;;;;;;;;18.78;51.45;102454.22;10473793;28;19924;-64
2022/04/17 14:49:48;;;;;;;;;;;;;;;19.05;48.52;102442.47;10484583;28;19939;-65
2022/04/17 14:55:09;;;;;;;;;;;;;;;19.28;47.03;102438.16;10492981;28;20294;-66
2022/04/17 15:00:31;;;;;;;;;;;;;;;19.19;50.49;102429.09;10467716;28;19924;-67
2022/04/17 15:05:54;;;;;;;;;;;;;;;19.15;51.02;102422.34;10491365;28;19981;-68
2022/04/17 15:11:17;;;;;;;;;;;;;;;19.37;47.16;102421.56;10465011;28;20361;-69
2022/04/17 15:16:38;;;;;;;;;;;;;;;19.47;49.08;102413.66;10473078;28;19931;-68
2022/04/17 15:22:00;;;;;;;;;;;;;;;19.47;49.83;102396.94;10493514;28;19928;-67
2022/04/17 15:27:21;;;;;;;;;;;;;;;19.63;49.38;102392.16;10478413;28;19928;-68
2022/04/17 15:32:43;;;;;;;;;;;;;;;19.60;49.64;102384.47;10471873;28;19924;-67
2022/04/17 15:38:05;;;;;;;2.97;1.45;;;;;;;19.75;49.84;102386.75;10470081;28;20109;-67
2022/04/17 15:49:23;;;;;;;2.60;1.35;;;;;;;19.81;51.17;102358.94;10460360;28;20056;-64
2022/04/17 15:54:45;;;;;;;3.92;1.35;;;;;;;19.80;51.23;102357.25;10472702;28;20040;-65
2022/04/17 16:00:08;;;;;;;3.70;1.13;;;;;;;19.82;51.21;102352.69;10476155;28;20051;-66
2022/04/17 16:05:29;;;;;;;2.15;1.27;;;;;;;19.82;49.79;102350.91;10491169;28;20224;-67
2022/04/17 16:10:51;;;;;;;2.00;1.15;;;;;;;19.98;45.98;102337.31;10473989;28;20056;-67
2022/04/17 16:16:13;;;;;;;2.65;1.45;;;;;;;20.00;49.69;102338.03;10451744;28;20154;-64
2022/04/17 16:21:34;;;;;;;2.20;1.50;;;;;;;19.83;45.91;102341.16;10494095;28;20067;-65
2022/04/17 16:26:56;;;;;;;2.10;1.50;;;;;;;19.83;48.78;102328.78;10477354;28;20043;-64
2022/04/17 16:32:19;;;;;;;1.67;1.30;;;;;;;19.76;41.87;102322.25;10473876;28;20410;-65
2022/04/17 16:37:41;;;;;;;2.50;1.20;;;;;;;19.70;42.93;102313.97;10467798;28;20056;-65
2022/04/17 16:43:03;;;;;;;1.65;1.17;;;;;;;19.77;49.15;102317.81;10472634;28;20401;-64
2022/04/17 16:48:26;;;;;;;1.90;1.30;;;;;;;19.62;45.06;102313.75;10471365;28;20052;-65
2022/04/17 16:53:48;;;;;;;1.52;1.30;;;;;;;19.44;49.41;102301.94;10470403;28;20037;-65
2022/04/17 16:59:12;;;;;;;1.55;0.93;;;;;;;19.28;49.11;102304.09;10470349;28;20052;-65
2022/04/17 17:04:34;;;;;;;2.28;1.20;;;;;;;19.02;45.92;102297.28;10503616;28;20044;-65
2022/04/17 17:09:57;;;;;;;3.53;1.10;;;;;;;18.86;43.54;102294.13;10486776;28;20057;-65
2022/04/17 17:15:18;;;;;;;1.75;1.10;;;;;;;18.69;45.89;102281.31;10488881;28;20408;-65
2022/04/17 17:20:40;;;;;;;1.52;1.00;;;;;;;18.37;46.85;102275.91;10457694;28;20049;-65
2022/04/17 17:26:02;;;;;;;1.83;1.05;;;;;;;18.15;47.39;102268.69;10469733;28;20036;-65
2022/04/17 17:31:24;;;;;;;1.83;1.05;;;;;;;17.98;46.76;102265.59;10456411;28;20056;-66
2022/04/17 17:36:45;;;;;;;1.10;0.95;;;;;;;17.81;46.05;102263.31;10489542;28;20098;-65
2022/04/17 17:42:07;;;;;;;1.83;0.90;;;;;;;17.59;48.37;102261.38;10480604;28;20051;-65
2022/04/17 17:47:29;;;;;;;1.75;0.90;;;;;;;17.39;46.92;102263.72;10490519;28;20064;-64
2022/04/17 17:52:51;;;;;;;2.08;1.00;;;;;;;17.19;47.50;102258.94;10483918;28;20516;-65
2022/04/17 17:58:13;;;;;;;2.03;0.88;;;;;;;17.05;47.39;102271.41;10485404;28;20052;-64
2022/04/17 18:03:35;;;;;;;1.33;1.00;;;;;;;16.91;46.90;102269.69;10478801;28;20040;-64
2022/04/17 18:14:41;;;;;;;3.53;1.20;;;;;;;16.66;47.29;102259.13;10514060;28;20043;-64
2022/04/17 18:20:10;;;;;;;2.42;1.40;;;;;;;16.55;45.38;102264.28;10502328;28;20408;-64
2022/04/17 18:25:31;;;;;;;1.70;1.42;;;;;;;16.42;47.75;102269.63;10474875;28;20051;-64
2022/04/17 18:30:53;;;;;;;2.33;1.65;;;;;;;16.29;46.89;102268.69;10476426;28;20048;-64
2022/04/17 18:36:15;;;;;;;12.07;1.60;;;;;;;16.19;47.07;102272.84;10475913;28;20867;-64
2022/04/17 18:41:36;;;;;;;2.67;1.67;;;;;;;16.01;48.16;102271.44;10478133;28;20062;-64
